Time;durP1;ratioP1;P1;durP2;ratioP2;P2;SDS_P1;SDS_P2;PMS_P1;PMS_P2;Temp;Humidity;BMP_temperature;BMP_pressure;BME280_temperature;BME280_humidity;BME280_pressure;Samples;Min_cycle;Max_cycle;Signal;HPM_P1;HPM_P2
2023/12/24 00:01:14;;;;;;;13.23;11.97;;;9.40;99.90;;;;;;4971262;28;20322;-62
2023/12/24 00:03:41;;;;;;;12.87;11.87;;;9.40;99.90;;;;;;5007084;28;20297;-66
2023/12/24 00:06:08;;;;;;;12.47;11.43;;;9.30;99.90;;;;;;5008157;28;20243;-62
2023/12/24 00:08:36;;;;;;;13.07;11.63;;;9.40;99.90;;;;;;4975624;28;20197;-63
2023/12/24 00:11:05;;;;;;;13.40;11.43;;;9.40;99.90;;;;;;5005218;28;20220;-62
2023/12/24 00:13:33;;;;;;;12.50;11.50;;;9.30;99.90;;;;;;5007603;28;20189;-62
2023/12/24 00:16:01;;;;;;;12.50;11.50;;;9.30;99.90;;;;;;5005365;28;20189;-62
2023/12/24 00:18:28;;;;;;;12.07;10.97;;;9.30;99.90;;;;;;4986738;28;20315;-62
2023/12/24 00:20:55;;;;;;;12.37;11.17;;;9.30;99.90;;;;;;4987354;28;20235;-61
2023/12/24 00:23:23;;;;;;;12.97;11.97;;;9.30;99.90;;;;;;4989158;28;20208;-61
2023/12/24 00:25:50;;;;;;;12.43;11.57;;;9.30;99.90;;;;;;5003382;28;20298;-62
2023/12/24 00:28:17;;;;;;;11.53;10.63;;;9.30;99.90;;;;;;5005000;28;20239;-63
2023/12/24 00:30:45;;;;;;;12.43;11.33;;;9.30;99.90;;;;;;4990986;28;20224;-61
2023/12/24 00:33:13;;;;;;;12.93;12.03;;;9.40;99.90;;;;;;4992752;28;20219;-61
2023/12/24 00:35:40;;;;;;;13.23;12.27;;;9.30;99.90;;;;;;4986921;28;20193;-62
2023/12/24 00:38:07;;;;;;;12.43;11.57;;;9.40;99.90;;;;;;4991601;28;20335;-63
2023/12/24 00:40:34;;;;;;;13.13;12.00;;;9.30;99.90;;;;;;4992242;28;20649;-69
2023/12/24 00:43:02;;;;;;;12.00;11.03;;;9.30;99.90;;;;;;4989662;28;20228;-70
2023/12/24 00:45:30;;;;;;;12.53;11.50;;;9.30;99.90;;;;;;5009494;28;20197;-71
2023/12/24 00:47:58;;;;;;;12.60;11.50;;;9.30;99.90;;;;;;5011696;28;20295;-71
2023/12/24 00:50:25;;;;;;;11.87;11.07;;;9.30;99.90;;;;;;4999234;28;20221;-70
2023/12/24 00:52:52;;;;;;;11.70;10.93;;;9.40;99.90;;;;;;4994949;28;20193;-70
2023/12/24 00:55:21;;;;;;;12.23;11.33;;;9.40;99.90;;;;;;4994351;28;20626;-70
2023/12/24 00:57:48;;;;;;;12.13;11.37;;;9.40;99.90;;;;;;4994200;28;20212;-71
2023/12/24 01:00:15;;;;;;;13.20;12.20;;;9.30;99.90;;;;;;4994892;28;20200;-68
2023/12/24 01:02:42;;;;;;;12.00;11.10;;;9.40;99.90;;;;;;5021669;28;20263;-70
2023/12/24 01:05:09;;;;;;;12.70;11.70;;;9.30;99.90;;;;;;5007742;28;20201;-70
2023/12/24 01:07:36;;;;;;;12.40;11.60;;;9.30;99.90;;;;;;4985736;28;20223;-70
2023/12/24 01:10:05;;;;;;;12.63;11.57;;;9.30;99.90;;;;;;4994599;28;20270;-70
2023/12/24 01:12:32;;;;;;;13.50;12.30;;;9.30;99.90;;;;;;4994202;28;20224;-69
2023/12/24 01:14:59;;;;;;;12.23;11.20;;;9.30;99.90;;;;;;4994357;28;20292;-70
2023/12/24 01:17:27;;;;;;;13.07;11.97;;;9.40;99.90;;;;;;5012501;28;20192;-69
2023/12/24 01:19:56;;;;;;;13.10;12.30;;;9.40;99.90;;;;;;5015309;28;20201;-69
2023/12/24 01:22:23;;;;;;;12.93;12.03;;;9.40;99.90;;;;;;5004879;28;20197;-70
2023/12/24 01:24:50;;;;;;;15.53;11.97;;;9.40;99.90;;;;;;4993487;28;20217;-69
2023/12/24 01:27:17;;;;;;;12.47;11.43;;;9.40;99.90;;;;;;5012444;28;20237;-68
2023/12/24 01:29:44;;;;;;;14.13;12.70;;;9.40;99.90;;;;;;5012102;28;20205;-70
2023/12/24 01:32:11;;;;;;;13.50;12.20;;;9.50;99.90;;;;;;4975727;28;20224;-68
2023/12/24 01:34:39;;;;;;;13.80;12.43;;;9.40;99.90;;;;;;4990927;28;20255;-70
2023/12/24 01:37:05;;;;;;;13.87;12.70;;;9.40;99.90;;;;;;4996323;28;20203;-70
2023/12/24 01:39:32;;;;;;;13.00;11.80;;;9.60;99.90;;;;;;4989939;28;20216;-70
2023/12/24 01:41:59;;;;;;;12.87;12.10;;;9.50;99.90;;;;;;5006750;28;20197;-69
2023/12/24 01:44:26;;;;;;;14.27;13.03;;;9.50;99.90;;;;;;4982944;28;20304;-70
2023/12/24 01:46:54;;;;;;;13.67;12.40;;;9.60;99.90;;;;;;5005038;28;20305;-70
2023/12/24 01:49:21;;;;;;;13.73;12.70;;;9.60;99.90;;;;;;4978944;28;20200;-70
2023/12/24 01:51:50;;;;;;;12.17;11.37;;;9.60;99.90;;;;;;4994444;28;20304;-63
2023/12/24 01:54:17;;;;;;;12.33;11.33;;;9.50;99.90;;;;;;4992911;28;20235;-63
2023/12/24 01:56:47;;;;;;;14.27;11.63;;;9.60;99.90;;;;;;4994462;28;20304;-65
2023/12/24 01:59:16;;;;;;;11.83;10.93;;;9.60;99.90;;;;;;4991915;28;20197;-64
2023/12/24 02:01:44;;;;;;;11.87;11.00;;;9.60;99.90;;;;;;4990885;28;20210;-64
2023/12/24 02:04:13;;;;;;;12.53;11.53;;;9.60;99.90;;;;;;4982172;28;20209;-64
2023/12/24 02:06:40;;;;;;;11.43;10.60;;;9.60;99.90;;;;;;4986798;28;20208;-64
2023/12/24 02:09:07;;;;;;;11.80;11.00;;;9.50;99.90;;;;;;4994465;28;20830;-64
2023/12/24 02:11:33;;;;;;;11.30;10.60;;;9.60;99.90;;;;;;4994378;28;20220;-64
2023/12/24 02:14:02;;;;;;;11.73;11.00;;;9.60;99.90;;;;;;4992796;28;20237;-64
2023/12/24 02:16:36;;;;;;;12.27;11.17;;;9.50;99.90;;;;;;4990383;28;20318;-62
2023/12/24 02:19:06;;;;;;;12.40;11.23;;;9.50;99.90;;;;;;5009501;28;20628;-62
2023/12/24 02:21:33;;;;;;;11.93;11.17;;;9.60;99.90;;;;;;4988503;28;20209;-62
2023/12/24 02:24:00;;;;;;;12.53;11.40;;;9.50;99.90;;;;;;4990565;28;20213;-64
2023/12/24 02:27:10;;;;;;;12.03;11.23;;;9.50;99.90;;;;;;4991716;28;20770;-62
2023/12/24 02:29:48;;;;;;;11.90;11.00;;;9.60;99.90;;;;;;4955156;28;20757;-62
2023/12/24 02:32:18;;;;;;;12.80;11.70;;;9.60;99.90;;;;;;4986337;28;20583;-62
2023/12/24 02:34:49;;;;;;;12.10;11.30;;;9.60;99.90;;;;;;4988842;28;20284;-62
2023/12/24 02:37:17;;;;;;;12.20;11.17;;;9.60;99.90;;;;;;5009544;28;20243;-61
2023/12/24 02:39:45;;;;;;;12.10;11.27;;;9.70;99.90;;;;;;4988194;28;20673;-62
2023/12/24 02:42:12;;;;;;;11.20;10.60;;;9.70;99.90;;;;;;4992550;28;20509;-63
2023/12/24 02:44:40;;;;;;;11.87;11.03;;;9.70;99.90;;;;;;4973307;28;20212;-62
2023/12/24 02:47:07;;;;;;;12.20;11.17;;;9.70;99.90;;;;;;5008704;28;20200;-63
2023/12/24 02:49:34;;;;;;;11.53;10.93;;;9.70;99.90;;;;;;4989172;28;20295;-63
2023/12/24 02:52:01;;;;;;;12.60;11.70;;;9.70;99.90;;;;;;4989720;28;20232;-62
2023/12/24 02:54:28;;;;;;;13.60;12.13;;;9.60;99.90;;;;;;5006227;28;20710;-62
2023/12/24 02:56:55;;;;;;;12.57;11.57;;;9.60;99.90;;;;;;4990281;28;20258;-62
2023/12/24 02:59:25;;;;;;;11.60;10.90;;;9.50;99.90;;;;;;4991284;28;20765;-62
2023/12/24 03:01:52;;;;;;;12.27;11.23;;;9.50;99.90;;;;;;4995722;28;20229;-68
2023/12/24 03:04:19;;;;;;;11.27;10.50;;;9.50;99.90;;;;;;4991219;28;20201;-69
2023/12/24 03:06:46;;;;;;;11.97;10.90;;;9.50;99.90;;;;;;5007601;28;20199;-69
2023/12/24 03:09:13;;;;;;;10.93;10.23;;;9.50;99.90;;;;;;4989376;28;20248;-68
2023/12/24 03:11:40;;;;;;;12.00;10.53;;;9.50;99.90;;;;;;4987539;28;20213;-62
2023/12/24 03:14:07;;;;;;;11.30;10.50;;;9.50;99.90;;;;;;4983220;28;20709;-62
2023/12/24 03:16:34;;;;;;;10.80;10.20;;;9.50;99.90;;;;;;4990066;28;20635;-61
2023/12/24 03:19:01;;;;;;;11.67;10.70;;;9.50;99.90;;;;;;4999448;28;20200;-64
2023/12/24 03:21:28;;;;;;;10.37;9.77;;;9.50;99.90;;;;;;5007354;28;20299;-63
2023/12/24 03:23:55;;;;;;;11.20;10.17;;;9.50;99.90;;;;;;4989715;28;20292;-64
2023/12/24 03:26:23;;;;;;;10.97;10.03;;;9.50;99.90;;;;;;4991208;28;20537;-64
2023/12/24 03:28:51;;;;;;;10.17;9.47;;;9.40;99.90;;;;;;4989731;28;20228;-63
2023/12/24 03:31:19;;;;;;;10.20;9.30;;;9.30;99.90;;;;;;4996800;28;20717;-64
2023/12/24 03:33:45;;;;;;;9.57;8.97;;;9.40;99.90;;;;;;4988986;28;20193;-65
2023/12/24 03:36:13;;;;;;;9.63;8.97;;;9.30;99.90;;;;;;4991112;28;20197;-64
2023/12/24 03:38:40;;;;;;;10.47;9.43;;;9.30;99.90;;;;;;4975645;28;20280;-64
2023/12/24 03:41:07;;;;;;;9.50;8.70;;;9.20;99.90;;;;;;4974870;28;20203;-64
2023/12/24 03:43:35;;;;;;;8.77;8.27;;;9.20;99.90;;;;;;4993772;28;20189;-64
2023/12/24 03:46:02;;;;;;;9.20;8.30;;;9.10;99.90;;;;;;4988557;28;20363;-63
2023/12/24 03:48:31;;;;;;;9.07;8.43;;;9.10;99.90;;;;;;4987392;28;20189;-68
2023/12/24 03:50:59;;;;;;;9.40;8.50;;;9.10;99.90;;;;;;4990850;28;20197;-67
2023/12/24 03:53:26;;;;;;;8.57;7.97;;;9.10;99.90;;;;;;4991611;28;20232;-63
2023/12/24 03:55:53;;;;;;;8.20;7.80;;;9.10;99.90;;;;;;5004566;28;20196;-62
2023/12/24 03:58:20;;;;;;;8.87;8.03;;;9.00;99.90;;;;;;5006412;28;20193;-64
2023/12/24 04:00:47;;;;;;;8.80;7.97;;;9.10;99.90;;;;;;5000296;28;20292;-62
2023/12/24 04:03:14;;;;;;;8.07;7.57;;;9.00;99.90;;;;;;4987966;28;20203;-63
2023/12/24 04:05:41;;;;;;;7.83;7.33;;;9.00;99.90;;;;;;5006241;28;20287;-64
2023/12/24 04:08:08;;;;;;;7.10;6.70;;;9.00;99.90;;;;;;4993533;28;20300;-63
2023/12/24 04:10:39;;;;;;;7.03;6.40;;;9.00;99.90;;;;;;5011829;28;20266;-69
2023/12/24 04:13:11;;;;;;;6.60;6.10;;;9.00;99.90;;;;;;4989359;28;21012;-69
2023/12/24 04:15:38;;;;;;;6.10;5.70;;;9.00;99.90;;;;;;5003573;28;20193;-70
2023/12/24 04:18:06;;;;;;;5.57;5.27;;;9.00;99.90;;;;;;5008345;28;20523;-69
2023/12/24 04:20:33;;;;;;;5.30;5.00;;;9.00;99.90;;;;;;4995053;28;20199;-69
2023/12/24 04:23:01;;;;;;;6.13;5.63;;;9.00;99.90;;;;;;5008628;28;20202;-69
2023/12/24 04:25:28;;;;;;;4.90;4.60;;;8.90;99.90;;;;;;4996589;28;20251;-69
2023/12/24 04:27:55;;;;;;;7.00;5.50;;;8.90;99.90;;;;;;5009828;28;20866;-69
2023/12/24 04:30:22;;;;;;;6.83;4.67;;;8.90;99.90;;;;;;4988856;28;20196;-69
2023/12/24 04:32:52;;;;;;;7.50;7.00;;;8.90;99.90;;;;;;5003181;28;20233;-70
2023/12/24 04:35:19;;;;;;;5.00;4.70;;;8.90;99.90;;;;;;5008244;28;20224;-69
2023/12/24 04:37:47;;;;;;;5.00;4.70;;;8.90;99.90;;;;;;5008560;28;21156;-71
2023/12/24 04:40:13;;;;;;;5.00;4.63;;;8.90;99.90;;;;;;5006606;28;20265;-70
2023/12/24 04:42:40;;;;;;;5.63;5.10;;;8.90;99.90;;;;;;4983636;28;20189;-70
2023/12/24 04:45:08;;;;;;;5.67;5.27;;;9.00;99.90;;;;;;5009234;28;20287;-70
2023/12/24 04:47:35;;;;;;;3.70;3.50;;;9.00;99.90;;;;;;4987115;28;20527;-70
2023/12/24 04:50:02;;;;;;;4.00;3.80;;;9.00;99.90;;;;;;4990277;28;20583;-70
2023/12/24 04:52:35;;;;;;;4.90;4.60;;;9.00;99.90;;;;;;4992214;28;20217;-70
2023/12/24 04:55:04;;;;;;;4.20;3.90;;;9.00;99.90;;;;;;5008483;28;20204;-69
2023/12/24 04:57:32;;;;;;;3.60;3.40;;;9.00;99.90;;;;;;4975148;28;20204;-69
2023/12/24 04:59:59;;;;;;;4.37;4.07;;;9.00;99.90;;;;;;4992909;28;20300;-71
2023/12/24 05:02:26;;;;;;;3.93;3.60;;;9.00;99.90;;;;;;5004289;28;20193;-70
2023/12/24 05:04:54;;;;;;;5.67;3.20;;;9.10;99.90;;;;;;4973192;28;20205;-70
2023/12/24 05:07:21;;;;;;;3.50;3.20;;;9.10;99.90;;;;;;4973132;28;20198;-70
2023/12/24 05:09:49;;;;;;;3.10;3.00;;;9.10;99.90;;;;;;4992761;28;20695;-70
2023/12/24 05:12:16;;;;;;;3.90;3.70;;;9.10;99.90;;;;;;5010054;28;20211;-70
2023/12/24 05:14:43;;;;;;;3.50;3.30;;;9.10;99.90;;;;;;5003430;28;20197;-71
2023/12/24 05:17:10;;;;;;;3.60;3.40;;;9.10;99.90;;;;;;4968159;28;20643;-70
2023/12/24 05:19:37;;;;;;;3.57;3.37;;;9.10;1.00;;;;;;4988317;28;20201;-64
2023/12/24 05:22:05;;;;;;;3.70;3.50;;;9.20;1.00;;;;;;4991433;28;20322;-64
2023/12/24 05:24:32;;;;;;;3.57;3.37;;;9.20;1.00;;;;;;5001705;28;20201;-64
2023/12/24 05:26:59;;;;;;;3.50;3.30;;;9.20;1.00;;;;;;4990777;28;20240;-64
2023/12/24 05:29:26;;;;;;;3.33;3.17;;;9.20;1.00;;;;;;5006300;28;20653;-64
2023/12/24 05:31:54;;;;;;;3.77;3.57;;;9.20;1.00;;;;;;5007684;28;20239;-64
2023/12/24 05:34:21;;;;;;;3.37;3.20;;;9.20;1.00;;;;;;5006925;28;20201;-65
2023/12/24 05:36:48;;;;;;;3.20;3.03;;;9.30;1.00;;;;;;5006385;28;20201;-64
2023/12/24 05:39:15;;;;;;;3.20;3.00;;;9.30;1.00;;;;;;4992775;28;20195;-63
2023/12/24 05:41:45;;;;;;;3.40;3.20;;;9.30;1.00;;;;;;5009784;28;20193;-63
2023/12/24 05:44:12;;;;;;;3.30;3.20;;;9.30;1.00;;;;;;4988874;28;20260;-63
2023/12/24 05:46:39;;;;;;;3.10;3.00;;;9.30;1.00;;;;;;4975861;28;20196;-63
2023/12/24 05:49:06;;;;;;;3.20;3.10;;;9.30;1.00;;;;;;5005143;28;20185;-62
2023/12/24 05:51:33;;;;;;;3.17;3.07;;;9.30;1.00;;;;;;5010438;28;20606;-63
2023/12/24 05:54:00;;;;;;;3.50;3.30;;;9.30;1.00;;;;;;5008794;28;20189;-61
2023/12/24 05:56:27;;;;;;;6.23;3.30;;;9.30;1.00;;;;;;5009368;28;20271;-64
2023/12/24 05:58:54;;;;;;;3.50;3.30;;;9.30;1.00;;;;;;4988271;28;22040;-62
2023/12/24 06:01:21;;;;;;;3.37;3.20;;;9.30;1.00;;;;;;4986796;28;20285;-62
2023/12/24 06:03:48;;;;;;;3.60;3.50;;;9.30;1.00;;;;;;5003561;28;20289;-63
2023/12/24 06:06:16;;;;;;;3.70;3.50;;;9.30;1.00;;;;;;5001042;28;20600;-62
2023/12/24 06:08:43;;;;;;;3.70;3.50;;;9.30;1.00;;;;;;4990018;28;20224;-62
2023/12/24 06:11:17;;;;;;;3.97;3.77;;;9.30;1.00;;;;;;5007750;28;20554;-65
2023/12/24 06:13:44;;;;;;;4.10;3.80;;;9.40;1.00;;;;;;4990164;28;20233;-62
2023/12/24 06:16:12;;;;;;;3.90;3.70;;;9.40;1.00;;;;;;5009456;28;20567;-62
2023/12/24 06:18:40;;;;;;;3.80;3.60;;;9.40;1.00;;;;;;4989414;28;20201;-62
2023/12/24 06:21:09;;;;;;;3.70;3.50;;;9.40;1.00;;;;;;4975166;28;20235;-63
2023/12/24 06:23:36;;;;;;;3.63;3.47;;;9.40;1.00;;;;;;5008682;28;20670;-65
2023/12/24 06:26:04;;;;;;;3.70;3.50;;;9.40;1.00;;;;;;4989395;28;20236;-63
2023/12/24 06:28:31;;;;;;;3.80;3.60;;;9.40;1.00;;;;;;4970056;28;20229;-62
2023/12/24 06:30:58;;;;;;;4.30;3.97;;;9.40;1.00;;;;;;5004449;28;20201;-69
2023/12/24 06:33:25;;;;;;;4.07;3.87;;;9.40;1.00;;;;;;4992499;28;20553;-70
2023/12/24 06:35:52;;;;;;;3.97;3.77;;;9.40;1.00;;;;;;4988547;28;20237;-70
2023/12/24 06:38:19;;;;;;;4.10;3.90;;;9.40;1.00;;;;;;5003392;28;20577;-69
2023/12/24 06:40:46;;;;;;;4.30;4.10;;;9.40;1.00;;;;;;5005904;28;20284;-70
2023/12/24 06:43:13;;;;;;;4.17;3.97;;;9.40;1.00;;;;;;5003253;28;20197;-69
2023/12/24 06:45:40;;;;;;;3.87;3.67;;;9.40;1.00;;;;;;5006817;28;20189;-70
2023/12/24 06:48:07;;;;;;;4.00;3.80;;;9.50;1.00;;;;;;4992819;28;20304;-69
2023/12/24 06:50:34;;;;;;;4.20;4.00;;;9.40;1.00;;;;;;4973203;28;20313;-70
2023/12/24 06:53:02;;;;;;;4.10;3.90;;;9.40;1.00;;;;;;5009027;28;20243;-69
2023/12/24 06:55:29;;;;;;;4.27;4.07;;;9.40;1.00;;;;;;4991905;28;20218;-70
2023/12/24 06:57:56;;;;;;;3.90;3.70;;;9.50;1.00;;;;;;5006848;28;20272;-71
2023/12/24 07:00:23;;;;;;;4.13;3.93;;;9.50;1.00;;;;;;4988415;28;20656;-70
2023/12/24 07:02:50;;;;;;;3.80;3.60;;;9.40;1.00;;;;;;5010490;28;20201;-70
2023/12/24 07:05:17;;;;;;;4.20;3.90;;;9.40;1.00;;;;;;5008284;28;20276;-69
2023/12/24 07:07:44;;;;;;;4.00;3.80;;;9.50;1.00;;;;;;4974396;28;20210;-69
2023/12/24 07:10:11;;;;;;;4.03;3.80;;;9.50;1.00;;;;;;5010227;28;20208;-70
2023/12/24 07:12:38;;;;;;;4.00;3.80;;;9.50;1.00;;;;;;4991771;28;20209;-70
2023/12/24 07:15:07;;;;;;;3.97;3.77;;;9.50;1.00;;;;;;4988336;28;20948;-70
2023/12/24 07:17:34;;;;;;;4.10;3.90;;;9.50;1.00;;;;;;5010298;28;20221;-71
2023/12/24 07:20:01;;;;;;;4.13;3.93;;;9.50;1.00;;;;;;4987354;28;20193;-69
2023/12/24 07:22:28;;;;;;;4.27;4.00;;;9.50;1.00;;;;;;4991691;28;20224;-71
2023/12/24 07:24:55;;;;;;;4.07;3.87;;;9.60;1.00;;;;;;5004044;28;20616;-71
2023/12/24 07:27:22;;;;;;;4.00;3.80;;;9.50;1.00;;;;;;4991665;28;20767;-71
2023/12/24 07:29:49;;;;;;;4.03;3.83;;;9.50;1.00;;;;;;4991400;28;20213;-71
2023/12/24 07:32:16;;;;;;;4.17;3.97;;;9.60;1.00;;;;;;5010286;28;20268;-71
2023/12/24 07:34:43;;;;;;;4.50;4.10;;;9.60;1.00;;;;;;5010911;28;20280;-69
2023/12/24 07:37:11;;;;;;;3.77;3.57;;;9.60;1.00;;;;;;5010098;28;20264;-67
2023/12/24 07:39:38;;;;;;;3.70;3.50;;;9.60;1.00;;;;;;5008607;28;20201;-67
2023/12/24 07:42:05;;;;;;;3.97;3.77;;;9.60;1.00;;;;;;5008908;28;20193;-68
2023/12/24 07:44:32;;;;;;;3.90;3.70;;;9.70;99.90;;;;;;5008089;28;20247;-69
2023/12/24 07:46:59;;;;;;;3.83;3.63;;;9.70;99.90;;;;;;4988941;28;20674;-69
2023/12/24 07:49:26;;;;;;;4.00;3.80;;;9.70;99.90;;;;;;5002502;28;20204;-69
2023/12/24 07:51:53;;;;;;;4.00;3.80;;;9.70;99.90;;;;;;4992636;28;20303;-63
2023/12/24 07:54:20;;;;;;;4.00;3.80;;;9.70;99.90;;;;;;4990953;28;20594;-63
2023/12/24 07:56:47;;;;;;;4.00;3.60;;;9.70;1.00;;;;;;5008516;28;20195;-63
2023/12/24 07:59:14;;;;;;;3.70;3.50;;;9.70;99.90;;;;;;4988018;28;20185;-68
2023/12/24 08:01:41;;;;;;;3.63;3.43;;;9.70;1.00;;;;;;5001609;28;20539;-64
2023/12/24 08:04:08;;;;;;;3.50;3.30;;;9.70;99.90;;;;;;4986212;28;20650;-64
2023/12/24 08:06:35;;;;;;;3.57;3.27;;;9.70;99.90;;;;;;4991987;28;20618;-64
2023/12/24 08:09:03;;;;;;;3.50;3.30;;;9.80;99.90;;;;;;4990439;28;20196;-64
2023/12/24 08:11:30;;;;;;;3.40;3.20;;;9.70;99.90;;;;;;4999304;28;20254;-64
2023/12/24 08:13:56;;;;;;;5.20;3.37;;;9.80;99.90;;;;;;5005898;28;20231;-64
2023/12/24 08:16:23;;;;;;;3.60;3.40;;;9.80;99.90;;;;;;5008500;28;20185;-64
2023/12/24 08:18:50;;;;;;;3.33;3.13;;;9.80;99.90;;;;;;5006803;28;20231;-64
2023/12/24 08:21:18;;;;;;;3.50;3.30;;;9.80;99.90;;;;;;4988778;28;20201;-64
2023/12/24 08:23:45;;;;;;;4.10;3.60;;;9.80;99.90;;;;;;5014288;28;20193;-64
2023/12/24 08:26:12;;;;;;;3.60;3.40;;;9.80;99.90;;;;;;4968873;28;20844;-64
2023/12/24 08:28:41;;;;;;;3.30;3.10;;;9.80;99.90;;;;;;5004306;28;20233;-64
2023/12/24 08:31:08;;;;;;;3.50;3.30;;;9.90;99.90;;;;;;4990979;28;20278;-64
2023/12/24 08:33:35;;;;;;;3.70;3.50;;;9.80;99.90;;;;;;5007752;28;20275;-64
2023/12/24 08:36:03;;;;;;;3.70;3.50;;;9.90;99.90;;;;;;4991614;28;20193;-64
2023/12/24 08:38:30;;;;;;;3.50;3.30;;;9.90;99.90;;;;;;4991042;28;20304;-64
2023/12/24 08:40:57;;;;;;;3.50;3.30;;;9.90;99.90;;;;;;4991669;28;20205;-66
2023/12/24 08:43:24;;;;;;;3.40;3.20;;;9.90;99.90;;;;;;4971770;28;21824;-65
2023/12/24 08:45:51;;;;;;;3.50;3.30;;;9.90;99.90;;;;;;4978757;28;20216;-64
2023/12/24 08:48:18;;;;;;;3.77;3.57;;;9.90;99.90;;;;;;4965902;28;20206;-65
2023/12/24 08:50:46;;;;;;;3.77;3.57;;;9.90;99.90;;;;;;5011072;28;20530;-64
2023/12/24 08:53:13;;;;;;;3.83;3.57;;;10.00;99.90;;;;;;4994555;28;20713;-63
2023/12/24 08:55:40;;;;;;;3.90;3.70;;;10.00;99.90;;;;;;4994906;28;20280;-64
2023/12/24 08:58:07;;;;;;;3.97;3.77;;;10.00;99.90;;;;;;4982685;28;20259;-64
2023/12/24 09:00:35;;;;;;;4.10;3.90;;;10.00;99.90;;;;;;5009799;28;20217;-64
2023/12/24 09:03:02;;;;;;;5.17;3.97;;;10.00;99.90;;;;;;4994231;28;20201;-64
2023/12/24 09:05:29;;;;;;;4.43;4.13;;;10.00;99.90;;;;;;4973812;28;20201;-63
2023/12/24 09:07:57;;;;;;;4.20;4.00;;;10.10;99.90;;;;;;5002332;28;20232;-64
2023/12/24 09:10:24;;;;;;;4.10;3.90;;;10.10;99.90;;;;;;4992319;28;20785;-64
2023/12/24 09:12:50;;;;;;;3.93;3.73;;;10.10;99.90;;;;;;5009735;28;20283;-63
2023/12/24 09:15:18;;;;;;;4.33;4.13;;;10.20;99.90;;;;;;5022063;28;20714;-63
2023/12/24 09:17:45;;;;;;;4.40;4.20;;;10.20;99.90;;;;;;4994984;28;20370;-63
2023/12/24 09:20:12;;;;;;;5.47;4.37;;;10.20;99.90;;;;;;4994615;28;20300;-64
2023/12/24 09:22:39;;;;;;;4.50;4.30;;;10.20;99.90;;;;;;4991036;28;20764;-63
2023/12/24 09:25:06;;;;;;;5.00;4.70;;;10.20;99.90;;;;;;4995285;28;20251;-65
2023/12/24 09:27:33;;;;;;;5.50;5.10;;;10.20;99.90;;;;;;5012628;28;20834;-67
2023/12/24 09:30:04;;;;;;;4.77;4.47;;;10.20;99.90;;;;;;4994331;28;20311;-66
2023/12/24 09:32:32;;;;;;;4.40;4.20;;;10.20;99.90;;;;;;4994829;28;20653;-65
2023/12/24 09:34:59;;;;;;;4.40;4.20;;;10.20;99.90;;;;;;5011077;28;20235;-64
2023/12/24 09:37:27;;;;;;;4.37;4.17;;;10.20;99.90;;;;;;4990899;28;20223;-64
2023/12/24 09:39:53;;;;;;;4.67;4.37;;;10.20;99.90;;;;;;4994156;28;20209;-66
2023/12/24 09:42:21;;;;;;;4.27;4.07;;;10.20;99.90;;;;;;4994644;28;20189;-64
2023/12/24 09:44:48;;;;;;;4.57;4.27;;;10.20;99.90;;;;;;4992768;28;20262;-63
2023/12/24 09:47:15;;;;;;;4.10;3.90;;;10.20;99.90;;;;;;4993372;28;20239;-63
2023/12/24 09:49:42;;;;;;;4.40;4.20;;;10.30;99.90;;;;;;5013127;28;20211;-64
2023/12/24 09:52:09;;;;;;;5.10;4.70;;;10.30;99.90;;;;;;4994906;28;20197;-65
2023/12/24 09:54:36;;;;;;;4.93;4.37;;;10.30;99.90;;;;;;5011684;28;20235;-63
2023/12/24 09:57:03;;;;;;;4.80;4.60;;;10.30;99.90;;;;;;5011734;28;20197;-69
2023/12/24 09:59:30;;;;;;;5.10;4.80;;;10.40;99.90;;;;;;4993111;28;20276;-63
2023/12/24 10:01:57;;;;;;;6.43;6.03;;;10.30;99.90;;;;;;4985649;28;20280;-62
2023/12/24 10:04:24;;;;;;;5.50;5.20;;;10.40;99.90;;;;;;5010965;28;20275;-63
2023/12/24 10:06:53;;;;;;;6.13;5.63;;;10.40;99.90;;;;;;5007229;28;20252;-63
2023/12/24 10:09:22;;;;;;;5.53;5.23;;;10.40;99.90;;;;;;4990630;28;20566;-62
2023/12/24 10:12:05;;;;;;;5.80;5.40;;;10.50;99.90;;;;;;4999607;28;20212;-68
2023/12/24 10:14:32;;;;;;;5.93;5.53;;;10.50;99.90;;;;;;5011673;28;20221;-67
2023/12/24 10:17:00;;;;;;;6.47;6.07;;;10.50;99.90;;;;;;4988308;28;20862;-68
2023/12/24 10:19:28;;;;;;;6.23;5.73;;;10.50;99.90;;;;;;5001584;28;20836;-70
2023/12/24 10:22:14;;;;;;;6.53;6.13;;;10.50;99.90;;;;;;4992641;28;20194;-68
2023/12/24 10:24:41;;;;;;;6.33;5.93;;;10.50;99.90;;;;;;5009501;28;20189;-69
2023/12/24 10:27:10;;;;;;;7.23;6.63;;;10.60;99.90;;;;;;5009688;28;20240;-69
2023/12/24 10:29:39;;;;;;;6.53;6.13;;;10.60;99.90;;;;;;4996357;28;20257;-69
2023/12/24 10:32:09;;;;;;;6.90;6.40;;;10.60;99.90;;;;;;4973982;28;20202;-69
2023/12/24 10:34:37;;;;;;;6.33;5.93;;;10.60;99.90;;;;;;4973234;28;20318;-69
2023/12/24 10:37:19;;;;;;;6.10;5.80;;;10.60;99.90;;;;;;4996892;28;20193;-69
2023/12/24 10:39:46;;;;;;;5.73;5.43;;;10.60;99.90;;;;;;4963074;28;20280;-67
2023/12/24 10:42:14;;;;;;;6.17;5.87;;;10.60;99.90;;;;;;4972896;28;20256;-69
2023/12/24 10:44:41;;;;;;;6.20;5.90;;;10.70;99.90;;;;;;4986188;28;20655;-69
2023/12/24 10:47:08;;;;;;;5.80;5.50;;;10.70;99.90;;;;;;4969373;28;20545;-69
2023/12/24 10:49:35;;;;;;;6.13;5.83;;;10.60;99.90;;;;;;4980063;28;20504;-70
2023/12/24 10:52:02;;;;;;;5.80;5.50;;;10.60;99.90;;;;;;4990038;28;20215;-69
2023/12/24 10:54:29;;;;;;;5.90;5.60;;;10.60;99.90;;;;;;4991511;28;20271;-69
2023/12/24 10:57:13;;;;;;;5.67;5.40;;;10.60;99.90;;;;;;4996804;28;20310;-69
2023/12/24 10:59:52;;;;;;;6.43;6.03;;;10.70;99.90;;;;;;4990330;28;20193;-69
2023/12/24 11:02:20;;;;;;;5.70;5.40;;;10.70;99.90;;;;;;4988303;28;20305;-68
2023/12/24 11:04:49;;;;;;;5.80;5.50;;;10.70;99.90;;;;;;4980300;28;20313;-69
2023/12/24 11:07:48;;;;;;;5.97;5.57;;;10.70;99.90;;;;;;4974123;28;20197;-69
2023/12/24 11:10:41;;;;;;;5.60;5.30;;;10.70;99.90;;;;;;4982231;28;20230;-69
2023/12/24 11:13:10;;;;;;;5.97;5.67;;;10.70;99.90;;;;;;4974240;28;20245;-69
2023/12/24 11:15:41;;;;;;;5.40;5.10;;;10.70;99.90;;;;;;4986799;28;20242;-70
2023/12/24 11:18:09;;;;;;;5.80;5.50;;;10.70;99.90;;;;;;4979379;28;20197;-69
2023/12/24 11:20:43;;;;;;;5.40;5.10;;;10.70;99.90;;;;;;4989044;28;20240;-69
2023/12/24 11:23:11;;;;;;;5.67;5.37;;;10.70;99.90;;;;;;4990271;28;20185;-69
2023/12/24 11:25:39;;;;;;;5.87;5.57;;;10.70;99.90;;;;;;4991278;28;20213;-69
2023/12/24 11:28:24;;;;;;;5.37;5.10;;;10.80;99.90;;;;;;4986675;28;20247;-69
2023/12/24 11:30:51;;;;;;;5.70;5.40;;;10.80;99.90;;;;;;5010270;28;20649;-70
2023/12/24 11:33:31;;;;;;;5.43;5.03;;;10.70;99.90;;;;;;4978990;28;20212;-69
2023/12/24 11:36:04;;;;;;;5.60;5.30;;;10.80;99.90;;;;;;5010375;28;20756;-69
2023/12/24 11:38:34;;;;;;;5.70;5.30;;;10.80;99.90;;;;;;4992347;28;20190;-69
2023/12/24 11:41:11;;;;;;;5.50;5.20;;;10.70;99.90;;;;;;5006816;28;20372;-69
2023/12/24 11:43:41;;;;;;;5.20;4.90;;;10.80;99.90;;;;;;5021139;28;20192;-69
2023/12/24 11:46:09;;;;;;;4.80;4.60;;;10.80;99.90;;;;;;5021729;28;20204;-69
2023/12/24 11:48:37;;;;;;;5.17;4.87;;;10.70;99.90;;;;;;5012887;28;20204;-69
2023/12/24 11:51:08;;;;;;;4.90;4.70;;;10.70;99.90;;;;;;5009708;28;20191;-69
2023/12/24 11:53:40;;;;;;;4.97;4.60;;;10.70;99.90;;;;;;5008205;28;20213;-69
2023/12/24 11:56:13;;;;;;;5.30;5.00;;;10.70;99.90;;;;;;5005979;28;20196;-68
2023/12/24 11:58:47;;;;;;;4.87;4.57;;;10.70;99.90;;;;;;4979807;28;20288;-69
2023/12/24 12:01:24;;;;;;;5.50;4.60;;;10.70;99.90;;;;;;5000417;28;20204;-69
2023/12/24 12:03:57;;;;;;;5.10;4.80;;;10.70;99.90;;;;;;4990887;28;20291;-69
2023/12/24 12:06:25;;;;;;;5.43;5.10;;;10.80;99.90;;;;;;5007957;28;20224;-68
2023/12/24 12:08:53;;;;;;;5.53;5.13;;;10.80;99.90;;;;;;5008517;28;20201;-70
2023/12/24 12:11:20;;;;;;;5.63;5.33;;;10.80;99.90;;;;;;5006746;28;20189;-69
2023/12/24 12:13:47;;;;;;;5.47;5.17;;;10.80;99.90;;;;;;4999142;28;20204;-70
2023/12/24 12:16:15;;;;;;;4.90;4.63;;;10.80;99.90;;;;;;5008895;28;20197;-70
2023/12/24 12:18:42;;;;;;;4.90;4.60;;;10.90;99.90;;;;;;4989728;28;20196;-70
2023/12/24 12:21:10;;;;;;;4.87;4.57;;;10.90;99.90;;;;;;4986037;28;20253;-70
2023/12/24 12:31:05;;;;;;;4.70;4.30;;;10.80;99.90;;;;;;5004506;28;20336;-70
2023/12/24 12:33:32;;;;;;;4.30;4.10;;;10.90;99.90;;;;;;4997923;28;20197;-70
2023/12/24 12:36:02;;;;;;;4.97;4.67;;;10.90;99.90;;;;;;5003120;28;20201;-70
2023/12/24 12:38:29;;;;;;;4.97;4.67;;;10.90;1.00;;;;;;4979075;28;20197;-70
2023/12/24 12:40:56;;;;;;;4.70;4.40;;;11.00;1.00;;;;;;4974454;28;20207;-70
2023/12/24 12:43:23;;;;;;;5.33;4.90;;;11.00;1.00;;;;;;4992227;28;20863;-69
2023/12/24 12:45:50;;;;;;;5.10;4.80;;;11.00;1.00;;;;;;5010233;28;20200;-71
2023/12/24 12:48:19;;;;;;;4.67;4.37;;;11.10;1.00;;;;;;4987290;28;20251;-70
2023/12/24 12:50:47;;;;;;;4.57;4.27;;;11.10;99.90;;;;;;4990018;28;20200;-70
2023/12/24 12:53:25;;;;;;;4.90;4.60;;;11.10;99.90;;;;;;5006743;28;20211;-67
2023/12/24 12:56:02;;;;;;;5.80;5.30;;;11.10;99.90;;;;;;5007485;28;20197;-68
2023/12/24 12:58:31;;;;;;;4.83;4.53;;;11.10;99.90;;;;;;5000794;28;20618;-70
2023/12/24 13:00:59;;;;;;;4.80;4.50;;;11.10;99.90;;;;;;4991988;28;20545;-70
2023/12/24 13:03:27;;;;;;;5.20;4.90;;;11.10;99.90;;;;;;4993658;28;20295;-71